Time;durP1;ratioP1;P1;durP2;ratioP2;P2;SDS_P1;SDS_P2;PMS_P1;PMS_P2;Temp;Humidity;BMP_temperature;BMP_pressure;BME280_temperature;BME280_humidity;BME280_pressure;Samples;Min_cycle;Max_cycle;Signal;HPM_P1;HPM_P2
2021/09/23 00:00:54;;;;;;;;;;;;;;;9.18;94.25;98679.73;1817742;78;21863;-82
2021/09/23 00:05:56;;;;;;;;;;;;;;;9.19;94.68;98673.26;1817955;79;20401;-82
2021/09/23 00:08:23;;;;;;;;;;;;;;;9.21;93.82;98663.81;1817657;79;20175;-82
2021/09/23 00:10:48;;;;;;;;;;;;;;;9.20;93.23;98664.88;1786182;79;20134;-82
2021/09/23 00:13:14;;;;;;;;;;;;;;;9.19;94.00;98662.44;1817888;79;20981;-82
2021/09/23 00:15:40;;;;;;;;;;;;;;;9.19;94.58;98659.20;1817297;79;20192;-82
2021/09/23 00:18:11;;;;;;;;;;;;;;;9.21;94.98;98662.45;1817621;79;20172;-82
2021/09/23 00:20:39;;;;;;;;;;;;;;;9.30;94.26;98672.28;1817191;79;20074;-82
2021/09/23 00:23:05;;;;;;;;;;;;;;;9.35;94.01;98666.93;1817651;79;20417;-82
2021/09/23 00:25:30;;;;;;;;;;;;;;;9.34;93.50;98662.59;1785673;79;21522;-82
2021/09/23 00:27:56;;;;;;;;;;;;;;;9.36;93.20;98662.34;1817557;79;20270;-82
2021/09/23 00:30:22;;;;;;;;;;;;;;;9.29;94.01;98664.70;1785748;79;20397;-82
2021/09/23 00:32:50;;;;;;;;;;;;;;;9.33;92.58;98649.61;1817614;79;20203;-82
2021/09/23 00:35:16;;;;;;;;;;;;;;;9.25;92.66;98643.31;1817584;79;20130;-82
2021/09/23 00:37:42;;;;;;;;;;;;;;;9.32;92.88;98645.28;1786329;79;21120;-82
2021/09/23 00:40:09;;;;;;;;;;;;;;;9.31;92.44;98638.75;1817622;79;20122;-82
2021/09/23 00:42:36;;;;;;;;;;;;;;;9.22;93.58;98643.80;1818101;79;20097;-82
2021/09/23 00:45:02;;;;;;;;;;;;;;;9.20;93.51;98641.09;1817581;79;20434;-82
2021/09/23 00:47:27;;;;;;;;;;;;;;;9.17;92.83;98637.55;1817736;79;20165;-82
2021/09/23 00:49:53;;;;;;;;;;;;;;;9.15;93.12;98638.35;1817768;79;21059;-82
2021/09/23 00:52:19;;;;;;;;;;;;;;;9.12;92.25;98629.37;1818127;79;20184;-82
2021/09/23 00:54:46;;;;;;;;;;;;;;;9.08;92.52;98626.92;1817398;79;20074;-82
2021/09/23 00:57:17;;;;;;;;;;;;;;;9.04;93.91;98632.81;1817651;79;20197;-82
2021/09/23 00:59:40;;;;;;;;;;;;;;;9.07;93.15;98634.75;1818576;78;20133;-82
2021/09/23 01:02:06;;;;;;;;;;;;;;;9.07;92.99;98638.27;1823822;78;21108;-83
2021/09/23 01:04:32;;;;;;;;;;;;;;;9.08;93.12;98642.60;1823435;78;20251;-82
2021/09/23 01:06:57;;;;;;;;;;;;;;;9.09;93.25;98646.94;1823481;78;20171;-82
2021/09/23 01:09:23;;;;;;;;;;;;;;;9.07;92.99;98639.63;1823420;78;20145;-82
2021/09/23 01:11:49;;;;;;;;;;;;;;;9.07;92.30;98639.63;1823523;78;20184;-82
2021/09/23 01:14:15;;;;;;;;;;;;;;;9.00;93.94;98636.30;1823610;78;21128;-82
2021/09/23 01:16:41;;;;;;;;;;;;;;;9.02;92.79;98628.20;1793315;78;20201;-82
2021/09/23 01:19:07;;;;;;;;;;;;;;;9.03;92.20;98620.91;1824061;78;20180;-82
2021/09/23 01:21:33;;;;;;;;;;;;;;;8.99;92.34;98617.09;1823322;78;20176;-82
2021/09/23 01:23:58;;;;;;;;;;;;;;;9.00;92.92;98621.43;1823491;78;20170;-82
2021/09/23 01:26:29;;;;;;;;;;;;;;;9.01;92.16;98626.58;1823428;78;21068;-82
2021/09/23 01:28:55;;;;;;;;;;;;;;;8.98;92.10;98617.64;1823457;78;20134;-82
2021/09/23 01:31:20;;;;;;;;;;;;;;;9.02;91.73;98607.93;1823197;78;20219;-82
2021/09/23 01:33:46;;;;;;;;;;;;;;;9.03;91.81;98598.75;1793700;78;20223;-82
2021/09/23 01:36:12;;;;;;;;;;;;;;;9.08;91.80;98598.53;1823341;78;20176;-82
2021/09/23 01:38:38;;;;;;;;;;;;;;;9.13;91.57;98592.62;1823173;78;21866;-82
2021/09/23 01:41:03;;;;;;;;;;;;;;;9.11;91.57;98597.47;1823292;78;20379;-82
2021/09/23 01:43:29;;;;;;;;;;;;;;;9.14;91.63;98606.41;1823481;78;20294;-82
2021/09/23 01:45:55;;;;;;;;;;;;;;;9.12;91.37;98597.75;1823173;78;20156;-82
2021/09/23 01:48:21;;;;;;;;;;;;;;;9.12;91.06;98602.34;1794115;78;20207;-82
2021/09/23 01:50:47;;;;;;;;;;;;;;;9.11;90.99;98601.53;1823329;78;21086;-82
2021/09/23 01:53:12;;;;;;;;;;;;;;;9.10;91.16;98604.48;1823563;78;20180;-82
2021/09/23 01:55:38;;;;;;;;;;;;;;;9.11;91.24;98601.53;1823188;78;20211;-82
2021/09/23 01:58:04;;;;;;;;;;;;;;;9.08;91.05;98590.42;1823622;78;20185;-82
2021/09/23 02:00:30;;;;;;;;;;;;;;;9.07;90.78;98590.96;1819885;78;20451;-82
2021/09/23 02:02:56;;;;;;;;;;;;;;;9.05;90.75;98591.19;1817573;79;21878;-82
2021/09/23 02:05:22;;;;;;;;;;;;;;;8.99;91.38;98583.31;1817081;79;20138;-82
2021/09/23 02:07:48;;;;;;;;;;;;;;;8.89;92.54;98584.03;1817551;79;20196;-82
2021/09/23 02:10:14;;;;;;;;;;;;;;;8.92;92.19;98590.27;1817225;79;20200;-82
2021/09/23 02:12:39;;;;;;;;;;;;;;;8.84;92.98;98587.20;1786090;79;20172;-82
2021/09/23 02:15:06;;;;;;;;;;;;;;;8.83;93.18;98588.28;1785840;79;21733;-83
2021/09/23 02:17:32;;;;;;;;;;;;;;;8.81;92.13;98585.84;1817505;79;20209;-82
2021/09/23 02:19:57;;;;;;;;;;;;;;;8.78;91.55;98570.64;1817414;79;20200;-82
2021/09/23 02:22:24;;;;;;;;;;;;;;;8.72;92.95;98571.15;1817688;79;20220;-82
2021/09/23 02:24:50;;;;;;;;;;;;;;;8.67;92.52;98562.98;1817279;79;20143;-82
2021/09/23 02:27:16;;;;;;;;;;;;;;;8.73;92.18;98562.78;1817557;79;21041;-82
2021/09/23 02:29:42;;;;;;;;;;;;;;;8.74;91.95;98564.95;1817285;79;20275;-82
2021/09/23 02:32:08;;;;;;;;;;;;;;;8.75;91.97;98554.42;1786215;79;20259;-82
2021/09/23 02:34:34;;;;;;;;;;;;;;;8.76;91.46;98554.69;1785697;79;20122;-82
2021/09/23 02:36:59;;;;;;;;;;;;;;;8.71;91.80;98568.95;1817410;79;20149;-82
2021/09/23 02:39:25;;;;;;;;;;;;;;;8.72;91.99;98558.45;1786062;79;20926;-82
2021/09/23 02:41:51;;;;;;;;;;;;;;;8.68;91.84;98550.56;1817440;79;20173;-82
2021/09/23 02:44:17;;;;;;;;;;;;;;;8.62;91.58;98552.10;1817357;79;20164;-82
2021/09/23 02:46:44;;;;;;;;;;;;;;;8.51;91.96;98547.67;1817199;79;20600;-82
2021/09/23 02:49:09;;;;;;;;;;;;;;;8.42;91.99;98537.84;1817409;79;20172;-82
2021/09/23 02:51:35;;;;;;;;;;;;;;;8.37;91.51;98525.09;1817305;79;21023;-82
2021/09/23 02:54:01;;;;;;;;;;;;;;;8.34;91.62;98528.28;1817549;79;20193;-82
2021/09/23 02:56:27;;;;;;;;;;;;;;;8.30;91.95;98531.75;1785693;79;20208;-82
2021/09/23 02:58:53;;;;;;;;;;;;;;;8.28;92.40;98531.98;1817620;79;20184;-82
2021/09/23 03:01:18;;;;;;;;;;;;;;;8.28;92.63;98530.63;1822009;78;20172;-82
2021/09/23 03:03:45;;;;;;;;;;;;;;;8.30;93.11;98534.45;1823816;78;21228;-82
2021/09/23 03:06:10;;;;;;;;;;;;;;;8.31;92.88;98540.94;1823357;78;20153;-82
2021/09/23 03:08:36;;;;;;;;;;;;;;;8.27;93.19;98539.80;1823629;78;20191;-82
2021/09/23 03:11:02;;;;;;;;;;;;;;;8.21;93.62;98538.13;1823329;78;20160;-82
2021/09/23 03:13:28;;;;;;;;;;;;;;;8.19;92.96;98535.66;1823641;78;20165;-82
2021/09/23 03:15:54;;;;;;;;;;;;;;;8.16;93.86;98538.05;1793712;78;21863;-82
2021/09/23 03:18:19;;;;;;;;;;;;;;;8.14;93.65;98539.66;1823646;78;20205;-82
2021/09/23 03:20:46;;;;;;;;;;;;;;;8.22;93.68;98534.36;1823394;78;20196;-82
2021/09/23 03:23:12;;;;;;;;;;;;;;;8.23;94.41;98529.77;1823684;78;20385;-82
2021/09/23 03:25:38;;;;;;;;;;;;;;;8.29;92.92;98527.39;1823454;78;20138;-82
2021/09/23 03:28:05;;;;;;;;;;;;;;;8.20;93.90;98524.31;1823684;78;21843;-82
2021/09/23 03:30:30;;;;;;;;;;;;;;;8.19;93.38;98519.45;1823331;78;20481;-82
2021/09/23 03:32:56;;;;;;;;;;;;;;;8.22;93.32;98521.39;1794660;78;20298;-82
2021/09/23 03:35:22;;;;;;;;;;;;;;;8.28;94.33;98525.22;1823474;78;20236;-82
2021/09/23 03:37:50;;;;;;;;;;;;;;;8.33;93.88;98532.58;1823688;78;20180;-82
2021/09/23 03:40:16;;;;;;;;;;;;;;;8.35;94.02;98527.77;1823369;78;21123;-82
2021/09/23 03:42:42;;;;;;;;;;;;;;;8.34;94.42;98533.67;1823751;78;20448;-82
2021/09/23 03:45:09;;;;;;;;;;;;;;;8.32;94.98;98535.82;1823334;78;20175;-82
2021/09/23 03:47:34;;;;;;;;;;;;;;;8.31;94.76;98528.80;1823727;78;20121;-82
2021/09/23 03:50:00;;;;;;;;;;;;;;;8.30;94.49;98528.52;1823523;78;20244;-82
2021/09/23 03:52:26;;;;;;;;;;;;;;;8.32;93.13;98537.70;1823382;78;21082;-82
2021/09/23 03:54:52;;;;;;;;;;;;;;;8.29;92.69;98539.03;1823517;78;20191;-82
2021/09/23 03:57:18;;;;;;;;;;;;;;;8.29;92.58;98531.44;1793704;78;20227;-82
2021/09/23 03:59:43;;;;;;;;;;;;;;;8.23;92.97;98537.34;1823531;78;20306;-82
2021/09/23 04:02:10;;;;;;;;;;;;;;;8.22;92.99;98538.41;1820507;78;20192;-82
2021/09/23 04:04:36;;;;;;;;;;;;;;;8.23;93.05;98534.63;1823315;78;21227;-82
2021/09/23 04:07:02;;;;;;;;;;;;;;;8.23;93.09;98537.87;1823617;78;20164;-82
2021/09/23 04:09:28;;;;;;;;;;;;;;;8.23;93.42;98544.09;1823633;78;20179;-82
2021/09/23 04:11:53;;;;;;;;;;;;;;;8.29;93.17;98540.39;1823780;78;20196;-82
2021/09/23 04:14:19;;;;;;;;;;;;;;;8.33;93.18;98537.45;1823595;78;20153;-82
2021/09/23 04:16:45;;;;;;;;;;;;;;;8.41;93.00;98523.53;1823384;78;21126;-82
2021/09/23 04:19:11;;;;;;;;;;;;;;;8.44;92.82;98521.66;1823609;78;20208;-82
2021/09/23 04:21:36;;;;;;;;;;;;;;;8.49;92.94;98526.31;1823313;78;20176;-82
2021/09/23 04:24:03;;;;;;;;;;;;;;;8.55;93.52;98518.56;1823646;78;20180;-82
2021/09/23 04:26:28;;;;;;;;;;;;;;;8.58;93.26;98511.28;1823222;78;20146;-82
2021/09/23 04:28:54;;;;;;;;;;;;;;;8.64;93.10;98511.62;1823675;78;21123;-82
2021/09/23 04:31:20;;;;;;;;;;;;;;;8.61;92.72;98512.12;1823472;78;20231;-82
2021/09/23 04:33:46;;;;;;;;;;;;;;;8.65;92.64;98510.55;1823729;78;20251;-82
2021/09/23 04:36:12;;;;;;;;;;;;;;;8.71;92.51;98503.30;1823489;78;20161;-82
2021/09/23 04:38:38;;;;;;;;;;;;;;;8.72;91.86;98500.90;1823614;78;20247;-82
2021/09/23 04:41:03;;;;;;;;;;;;;;;8.64;91.78;98504.88;1823219;78;21064;-82
2021/09/23 04:43:29;;;;;;;;;;;;;;;8.62;92.21;98510.23;1823661;78;20164;-82
2021/09/23 04:45:55;;;;;;;;;;;;;;;8.66;91.92;98512.72;1823298;78;20192;-82
2021/09/23 04:48:21;;;;;;;;;;;;;;;8.67;92.00;98513.81;1823726;78;20164;-82
2021/09/23 04:50:47;;;;;;;;;;;;;;;8.75;92.09;98511.19;1823453;78;20236;-82
2021/09/23 04:53:13;;;;;;;;;;;;;;;8.82;91.80;98508.28;1823651;78;21041;-82
2021/09/23 04:55:38;;;;;;;;;;;;;;;8.85;91.66;98507.22;1793601;78;20223;-82
2021/09/23 04:58:04;;;;;;;;;;;;;;;8.91;91.74;98504.85;1823772;78;20203;-82
2021/09/23 05:00:30;;;;;;;;;;;;;;;8.93;91.28;98507.30;1823419;78;20219;-82
2021/09/23 05:02:56;;;;;;;;;;;;;;;8.85;91.21;98507.22;1817276;78;20228;-82
2021/09/23 05:05:22;;;;;;;;;;;;;;;8.78;91.54;98501.73;1817362;79;21077;-82
2021/09/23 05:07:48;;;;;;;;;;;;;;;8.74;92.04;98500.09;1817179;79;20243;-82
2021/09/23 05:10:14;;;;;;;;;;;;;;;8.78;91.98;98505.25;1785875;79;20681;-82
2021/09/23 05:12:40;;;;;;;;;;;;;;;8.78;91.86;98510.66;1817152;79;20141;-82
2021/09/23 05:15:06;;;;;;;;;;;;;;;8.76;92.19;98508.22;1817409;79;20141;-82
2021/09/23 05:17:32;;;;;;;;;;;;;;;8.79;91.99;98512.83;1817181;79;21126;-82
2021/09/23 05:19:58;;;;;;;;;;;;;;;8.81;91.69;98510.17;1817330;79;20196;-82
2021/09/23 05:22:27;;;;;;;;;;;;;;;8.85;91.75;98507.75;1817360;79;20406;-82
2021/09/23 05:24:53;;;;;;;;;;;;;;;8.87;91.66;98505.61;1817280;79;20086;-82
2021/09/23 05:27:19;;;;;;;;;;;;;;;8.94;91.42;98495.41;1817395;79;20166;-82
2021/09/23 05:29:45;;;;;;;;;;;;;;;8.97;91.03;98488.97;1785957;79;21090;-82
2021/09/23 05:32:11;;;;;;;;;;;;;;;9.01;91.08;98497.36;1817337;79;20223;-82
2021/09/23 05:34:36;;;;;;;;;;;;;;;9.09;90.83;98494.72;1817405;79;20152;-83
2021/09/23 05:37:03;;;;;;;;;;;;;;;9.11;90.82;98493.38;1817351;79;20156;-84
2021/09/23 05:39:29;;;;;;;;;;;;;;;9.24;90.54;98496.20;1817899;79;20167;-83
2021/09/23 05:41:54;;;;;;;;;;;;;;;9.25;89.96;98489.17;1785903;79;21747;-82
2021/09/23 05:44:23;;;;;;;;;;;;;;;9.23;89.84;98479.16;1817322;79;20791;-82
2021/09/23 05:46:48;;;;;;;;;;;;;;;9.27;89.66;98492.97;1816945;79;20130;-82
2021/09/23 05:49:13;;;;;;;;;;;;;;;9.24;89.50;98493.50;1817583;79;20140;-83
2021/09/23 05:51:40;;;;;;;;;;;;;;;9.23;89.69;98487.27;1817268;79;20212;-83
2021/09/23 05:54:06;;;;;;;;;;;;;;;9.28;89.89;98495.41;1817497;79;20639;-82
2021/09/23 05:56:32;;;;;;;;;;;;;;;9.34;89.66;98492.21;1817362;79;20275;-82
2021/09/23 05:58:58;;;;;;;;;;;;;;;9.39;89.41;98495.47;1817486;79;20500;-82
2021/09/23 06:01:24;;;;;;;;;;;;;;;9.43;89.23;98498.77;1818870;78;20340;-82
2021/09/23 06:03:50;;;;;;;;;;;;;;;9.44;88.96;98499.03;1823205;78;20208;-82
2021/09/23 06:06:15;;;;;;;;;;;;;;;9.39;89.28;98494.93;1793856;78;21173;-82
2021/09/23 06:08:42;;;;;;;;;;;;;;;9.52;89.84;98493.14;1767734;78;20195;-82
2021/09/23 06:11:09;;;;;;;;;;;;;;;9.67;89.23;98497.02;1823506;78;20134;-82
2021/09/23 06:13:35;;;;;;;;;;;;;;;9.75;88.97;98490.58;1823581;78;20441;-82
2021/09/23 06:16:01;;;;;;;;;;;;;;;9.78;88.51;98490.58;1823332;78;20164;-83
2021/09/23 06:18:26;;;;;;;;;;;;;;;9.85;88.09;98481.69;1823607;78;21015;-82
2021/09/23 06:20:52;;;;;;;;;;;;;;;9.94;87.83;98476.58;1823254;78;20196;-83
2021/09/23 06:23:18;;;;;;;;;;;;;;;10.07;86.73;98472.02;1823575;78;20286;-82
2021/09/23 06:25:44;;;;;;;;;;;;;;;10.03;86.33;98463.63;1823324;78;20187;-83
2021/09/23 06:28:11;;;;;;;;;;;;;;;9.96;86.45;98472.52;1823464;78;20727;-83
2021/09/23 06:30:37;;;;;;;;;;;;;;;9.94;86.99;98470.63;1823354;78;21842;-83
2021/09/23 06:33:03;;;;;;;;;;;;;;;9.99;87.07;98467.11;1823284;78;20153;-81
2021/09/23 06:35:29;;;;;;;;;;;;;;;10.05;86.63;98462.81;1793954;78;20134;-81
2021/09/23 06:37:55;;;;;;;;;;;;;;;10.09;86.39;98464.47;1793965;78;20188;-82
2021/09/23 06:40:20;;;;;;;;;;;;;;;10.13;86.98;98468.25;1823408;78;20747;-81
2021/09/23 06:42:46;;;;;;;;;;;;;;;10.38;87.09;98469.72;1768059;78;21853;-81
2021/09/23 06:45:12;;;;;;;;;;;;;;;10.58;86.18;98461.34;1823342;78;20138;-81
2021/09/23 06:47:38;;;;;;;;;;;;;;;10.72;86.13;98458.39;1823293;78;20619;-81
2021/09/23 06:50:04;;;;;;;;;;;;;;;10.85;85.66;98459.74;1823437;78;20168;-81
2021/09/23 06:52:30;;;;;;;;;;;;;;;10.96;84.48;98460.84;1823442;78;20110;-81
2021/09/23 06:54:56;;;;;;;;;;;;;;;11.25;84.65;98454.85;1823511;78;21900;-81
2021/09/23 06:57:21;;;;;;;;;;;;;;;11.86;82.61;98458.80;1823317;78;20191;-81
2021/09/23 06:59:47;;;;;;;;;;;;;;;12.55;78.34;98457.10;1824047;78;20262;-82
2021/09/23 07:02:13;;;;;;;;;;;;;;;12.96;76.37;98448.11;1820841;78;20161;-81
2021/09/23 07:04:39;;;;;;;;;;;;;;;13.15;76.89;98452.30;1817313;79;20141;-81
2021/09/23 07:07:05;;;;;;;;;;;;;;;13.77;75.25;98452.80;1817549;79;21180;-82
2021/09/23 07:09:31;;;;;;;;;;;;;;;13.74;76.05;98445.19;1817514;79;20180;-81
2021/09/23 07:11:58;;;;;;;;;;;;;;;13.41;76.42;98440.64;1785830;79;20172;-81
2021/09/23 07:14:24;;;;;;;;;;;;;;;13.34;76.34;98450.53;1817429;79;20130;-81
2021/09/23 07:16:50;;;;;;;;;;;;;;;13.55;72.38;98448.41;1817576;79;20154;-82
2021/09/23 07:19:16;;;;;;;;;;;;;;;13.49;73.62;98448.19;1785964;79;22448;-81
2021/09/23 07:21:42;;;;;;;;;;;;;;;13.30;72.67;98441.86;1817499;79;20479;-81
2021/09/23 07:24:08;;;;;;;;;;;;;;;13.51;73.78;98440.56;1817590;79;20212;-81
2021/09/23 07:26:34;;;;;;;;;;;;;;;14.56;70.21;98444.17;1817445;79;20620;-81
2021/09/23 07:29:00;;;;;;;;;;;;;;;14.46;69.79;98442.41;1817486;79;20193;-82
2021/09/23 07:31:26;;;;;;;;;;;;;;;14.15;70.73;98437.89;1817487;79;21829;-81
2021/09/23 07:33:52;;;;;;;;;;;;;;;14.15;70.65;98436.52;1817427;79;20176;-81
2021/09/23 07:36:18;;;;;;;;;;;;;;;14.06;70.49;98429.55;1817451;79;20196;-82
2021/09/23 07:38:44;;;;;;;;;;;;;;;13.94;71.06;98422.92;1817499;79;20185;-81
2021/09/23 07:41:10;;;;;;;;;;;;;;;14.86;68.94;98423.78;1786157;79;20153;-81
2021/09/23 07:43:35;;;;;;;;;;;;;;;16.03;65.83;98408.80;1817495;79;21139;-82
2021/09/23 07:46:01;;;;;;;;;;;;;;;16.65;66.87;98402.77;1785749;79;20235;-82
2021/09/23 07:48:28;;;;;;;;;;;;;;;17.56;63.06;98398.28;1817246;79;20227;-82
2021/09/23 07:50:54;;;;;;;;;;;;;;;18.01;63.49;98397.56;1785983;79;20130;-82
2021/09/23 07:53:19;;;;;;;;;;;;;;;18.64;57.99;98386.35;1817371;79;20196;-82
2021/09/23 07:55:46;;;;;;;;;;;;;;;19.25;54.99;98391.22;1817208;79;21026;-82
2021/09/23 07:58:13;;;;;;;;;;;;;;;19.23;53.71;98383.84;1817160;79;20161;-82
2021/09/23 08:00:39;;;;;;;;;;;;;;;19.91;52.51;98383.35;1817185;79;20134;-83
2021/09/23 08:03:04;;;;;;;;;;;;;;;20.07;50.29;98380.27;1821622;78;20349;-83
2021/09/23 08:05:30;;;;;;;;;;;;;;;20.40;50.26;98370.73;1823385;78;20220;-83
2021/09/23 08:07:57;;;;;;;;;;;;;;;20.80;52.98;98371.66;1823446;78;21060;-82
2021/09/23 08:10:23;;;;;;;;;;;;;;;21.52;48.74;98372.20;1823334;78;20197;-83
2021/09/23 08:12:49;;;;;;;;;;;;;;;21.57;48.97;98362.34;1823387;78;20291;-83
2021/09/23 08:15:15;;;;;;;;;;;;;;;21.90;46.05;98360.85;1793770;78;20413;-82
2021/09/23 08:17:40;;;;;;;;;;;;;;;22.65;47.01;98353.48;1823321;78;20299;-82
2021/09/23 08:20:07;;;;;;;;;;;;;;;22.66;45.27;98361.98;1823408;78;21040;-82
2021/09/23 08:22:33;;;;;;;;;;;;;;;23.27;45.43;98359.75;1823398;78;20158;-83
2021/09/23 08:24:59;;;;;;;;;;;;;;;23.57;44.59;98360.11;1823338;78;20172;-83
2021/09/23 08:27:24;;;;;;;;;;;;;;;24.33;45.35;98357.19;1823353;78;20160;-82
2021/09/23 08:29:50;;;;;;;;;;;;;;;24.84;44.83;98350.94;1823389;78;20168;-83
2021/09/23 08:32:20;;;;;;;;;;;;;;;25.42;45.68;98352.25;1823412;78;21180;-83
2021/09/23 08:34:44;;;;;;;;;;;;;;;26.20;40.27;98351.33;1822477;78;20209;-83
2021/09/23 08:37:10;;;;;;;;;;;;;;;25.67;41.78;98349.10;1823418;78;20130;-83
2021/09/23 08:39:36;;;;;;;;;;;;;;;25.75;41.49;98350.84;1823384;78;20137;-83
2021/09/23 08:42:02;;;;;;;;;;;;;;;25.28;43.12;98347.24;1823605;78;20145;-83
2021/09/23 08:44:28;;;;;;;;;;;;;;;25.85;42.26;98342.69;1823417;78;21150;-83
2021/09/23 08:46:54;;;;;;;;;;;;;;;24.18;41.07;98337.48;1823509;78;20409;-83
2021/09/23 08:49:20;;;;;;;;;;;;;;;24.24;42.87;98344.91;1823526;78;20196;-82
2021/09/23 08:51:45;;;;;;;;;;;;;;;24.67;41.98;98332.80;1823439;78;20617;-83
2021/09/23 08:54:11;;;;;;;;;;;;;;;23.42;41.28;98343.54;1823246;78;20219;-83
2021/09/23 08:56:37;;;;;;;;;;;;;;;22.22;43.90;98335.09;1793668;78;20957;-83
2021/09/23 08:59:03;;;;;;;;;;;;;;;21.32;45.51;98328.43;1823376;78;20299;-82
2021/09/23 09:01:39;;;;;;;;;;;;;;;20.68;47.09;98329.74;1794080;78;20314;-82
2021/09/23 09:04:03;;;;;;;;;;;;;;;20.17;47.11;98332.33;1822319;78;20130;-82
2021/09/23 09:06:29;;;;;;;;;;;;;;;19.23;49.30;98331.11;1823509;78;20158;-82
2021/09/23 09:08:55;;;;;;;;;;;;;;;18.76;51.07;98342.61;1823150;78;21124;-82
2021/09/23 09:11:20;;;;;;;;;;;;;;;18.31;51.51;98341.00;1823447;78;20196;-82
2021/09/23 09:13:47;;;;;;;;;;;;;;;18.01;51.24;98343.30;1823150;78;20175;-82
2021/09/23 09:16:21;;;;;;;;;;;;;;;17.19;53.93;98337.95;1823609;78;20157;-82
2021/09/23 09:18:48;;;;;;;;;;;;;;;16.90;54.45;98346.63;1823548;78;20142;-82
2021/09/23 09:21:15;;;;;;;;;;;;;;;16.60;55.25;98344.09;1823651;78;21875;-82
2021/09/23 09:23:49;;;;;;;;;;;;;;;16.49;56.42;98340.80;1823201;78;20181;-82
2021/09/23 09:26:23;;;;;;;;;;;;;;;16.42;55.75;98343.71;1823666;78;20094;-82
2021/09/23 09:28:51;;;;;;;;;;;;;;;16.31;55.65;98345.85;1822501;78;20105;-82
2021/09/23 09:31:17;;;;;;;;;;;;;;;16.08;57.54;98348.56;1823673;78;20425;-82
2021/09/23 09:33:44;;;;;;;;;;;;;;;15.95;58.29;98341.75;1823179;78;21128;-82
2021/09/23 09:36:30;;;;;;;;;;;;;;;15.86;57.29;98339.49;1823523;78;20142;-82
2021/09/23 09:39:02;;;;;;;;;;;;;;;15.74;58.20;98336.73;1823241;78;20448;-81
2021/09/23 09:41:30;;;;;;;;;;;;;;;15.65;58.95;98337.20;1794234;78;20394;-82
2021/09/23 09:43:59;;;;;;;;;;;;;;;15.65;59.00;98340.49;1823384;78;20343;-82
2021/09/23 09:46:29;;;;;;;;;;;;;;;15.61;58.68;98343.56;1823637;78;20995;-82
2021/09/23 09:48:55;;;;;;;;;;;;;;;15.45;58.89;98338.38;1823109;78;20197;-81
2021/09/23 09:51:37;;;;;;;;;;;;;;;15.31;59.53;98340.88;1794365;78;20195;-82
2021/09/23 09:54:03;;;;;;;;;;;;;;;15.20;60.23;98344.33;1823291;78;20376;-81
2021/09/23 09:56:29;;;;;;;;;;;;;;;15.29;59.83;98342.52;1823596;78;20184;-82
2021/09/23 09:59:17;;;;;;;;;;;;;;;15.39;60.79;98346.44;1823178;78;21021;-82
2021/09/23 10:01:45;;;;;;;;;;;;;;;15.49;60.64;98348.95;1823753;78;20389;-81
2021/09/23 10:04:11;;;;;;;;;;;;;;;15.46;61.23;98335.09;1821942;78;20138;-82
2021/09/23 10:06:38;;;;;;;;;;;;;;;15.54;61.06;98333.01;1823508;78;20221;-82
2021/09/23 10:09:05;;;;;;;;;;;;;;;15.67;61.13;98339.06;1823424;78;20137;-82
2021/09/23 10:11:31;;;;;;;;;;;;;;;15.78;60.83;98335.55;1823458;78;21735;-82
2021/09/23 10:13:57;;;;;;;;;;;;;;;15.92;60.92;98319.95;1823264;78;20682;-82
2021/09/23 10:16:23;;;;;;;;;;;;;;;16.05;60.80;98317.73;1793787;78;20207;-81
2021/09/23 10:18:49;;;;;;;;;;;;;;;16.13;60.78;98303.08;1823095;78;20231;-82
2021/09/23 10:21:16;;;;;;;;;;;;;;;16.30;60.33;98301.30;1793900;78;20156;-82
2021/09/23 10:23:42;;;;;;;;;;;;;;;16.55;59.42;98299.87;1823298;78;21100;-81
2021/09/23 10:26:08;;;;;;;;;;;;;;;16.42;58.95;98286.28;1823485;78;20184;-82
2021/09/23 10:28:34;;;;;;;;;;;;;;;16.39;59.07;98284.95;1823342;78;20413;-82
2021/09/23 10:31:00;;;;;;;;;;;;;;;16.29;59.25;98277.81;1823334;78;20144;-81
2021/09/23 10:33:27;;;;;;;;;;;;;;;16.26;59.70;98279.00;1823512;78;20231;-82
2021/09/23 10:35:52;;;;;;;;;;;;;;;16.27;59.34;98277.87;1823250;78;21102;-81
2021/09/23 10:38:18;;;;;;;;;;;;;;;16.30;59.31;98281.34;1793629;78;20168;-82
2021/09/23 10:40:44;;;;;;;;;;;;;;;16.38;59.49;98274.33;1793882;78;20193;-82
2021/09/23 10:43:16;;;;;;;;;;;;;;;16.44;59.26;98278.00;1794192;78;20180;-82
2021/09/23 10:45:42;;;;;;;;;;;;;;;16.53;59.61;98272.59;1823244;78;20185;-82
2021/09/23 10:48:08;;;;;;;;;;;;;;;16.54;59.40;98264.06;1823506;78;21042;-82
2021/09/23 10:50:35;;;;;;;;;;;;;;;16.63;59.92;98255.91;1793589;78;20162;-82
2021/09/23 10:53:05;;;;;;;;;;;;;;;16.72;59.12;98258.72;1793625;78;20180;-82
2021/09/23 10:55:32;;;;;;;;;;;;;;;16.73;58.92;98263.87;1823242;78;20193;-82
2021/09/23 10:57:58;;;;;;;;;;;;;;;16.69;59.82;98260.73;1823590;78;20146;-82
2021/09/23 11:00:25;;;;;;;;;;;;;;;16.77;59.31;98255.86;1823386;78;21069;-82
2021/09/23 11:02:53;;;;;;;;;;;;;;;16.57;59.21;98236.63;1821856;78;20216;-82
2021/09/23 11:05:19;;;;;;;;;;;;;;;16.57;59.20;98242.11;1815842;79;20410;-81
2021/09/23 11:07:45;;;;;;;;;;;;;;;16.50;59.39;98234.93;1785931;79;20401;-82
2021/09/23 11:10:17;;;;;;;;;;;;;;;16.53;59.31;98209.67;1817246;79;20204;-82
2021/09/23 11:12:45;;;;;;;;;;;;;;;16.61;59.79;98213.02;1818028;79;21124;-82
2021/09/23 11:15:12;;;;;;;;;;;;;;;16.85;58.80;98207.20;1817766;79;20185;-82
2021/09/23 11:17:40;;;;;;;;;;;;;;;16.85;58.31;98212.12;1817538;79;20138;-82
2021/09/23 11:20:08;;;;;;;;;;;;;;;16.81;58.02;98208.95;1785885;79;20437;-82
2021/09/23 11:22:40;;;;;;;;;;;;;;;16.82;58.44;98214.66;1817931;79;20296;-82
2021/09/23 11:25:11;;;;;;;;;;;;;;;17.02;59.16;98221.52;1817293;79;21113;-82
2021/09/23 11:27:38;;;;;;;;;;;;;;;17.16;58.73;98227.67;1817582;79;20158;-82
2021/09/23 11:30:05;;;;;;;;;;;;;;;17.18;59.31;98218.59;1817348;79;20204;-82
2021/09/23 11:32:31;;;;;;;;;;;;;;;17.19;58.42;98211.99;1817446;79;20628;-82
2021/09/23 11:35:00;;;;;;;;;;;;;;;17.18;58.68;98209.82;1817415;79;20137;-82
2021/09/23 11:37:32;;;;;;;;;;;;;;;17.07;56.62;98195.36;1816415;79;20526;-82
2021/09/23 11:39:59;;;;;;;;;;;;;;;16.79;57.92;98189.31;1785700;79;20382;-82
2021/09/23 11:42:29;;;;;;;;;;;;;;;16.70;58.54;98173.42;1817641;79;20106;-82
2021/09/23 11:44:57;;;;;;;;;;;;;;;16.74;58.83;98175.19;1817303;79;20518;-82
2021/09/23 11:47:23;;;;;;;;;;;;;;;16.78;58.61;98174.02;1785289;79;20432;-82
2021/09/23 11:49:49;;;;;;;;;;;;;;;16.87;59.07;98170.19;1817170;79;21206;-82
2021/09/23 11:52:15;;;;;;;;;;;;;;;17.02;57.92;98177.72;1817586;79;20181;-82
2021/09/23 11:54:41;;;;;;;;;;;;;;;17.01;57.89;98174.19;1785864;79;20756;-82
2021/09/23 11:57:07;;;;;;;;;;;;;;;17.09;58.04;98166.55;1817646;79;20522;-82
2021/09/23 11:59:33;;;;;;;;;;;;;;;17.22;57.61;98155.22;1817183;79;20236;-82
2021/09/23 12:02:00;;;;;;;;;;;;;;;17.37;58.36;98152.02;1817515;79;21029;-82
2021/09/23 12:04:26;;;;;;;;;;;;;;;17.53;57.28;98140.03;1817281;78;20130;-82
2021/09/23 12:07:02;;;;;;;;;;;;;;;17.59;56.08;98131.06;1817703;79;20176;-82
2021/09/23 12:09:28;;;;;;;;;;;;;;;17.53;55.75;98131.81;1817169;79;20098;-82
2021/09/23 12:11:54;;;;;;;;;;;;;;;17.54;56.29;98123.83;1818289;79;20184;-82
2021/09/23 12:14:19;;;;;;;;;;;;;;;17.67;57.80;98115.99;1817455;79;21063;-82
2021/09/23 12:16:47;;;;;;;;;;;;;;;17.92;57.03;98102.05;1818066;79;20192;-82
2021/09/23 12:19:16;;;;;;;;;;;;;;;18.05;56.61;98092.04;1817210;79;20138;-82
2021/09/23 12:21:51;;;;;;;;;;;;;;;18.06;56.57;98078.56;1817465;79;20186;-82
2021/09/23 12:24:17;;;;;;;;;;;;;;;18.16;55.59;98069.98;1816187;79;20418;-82
2021/09/23 12:26:44;;;;;;;;;;;;;;;18.02;55.35;98068.00;1817533;79;21954;-82
2021/09/23 12:29:11;;;;;;;;;;;;;;;17.89;53.98;98056.69;1817187;79;20127;-82
2021/09/23 12:31:41;;;;;;;;;;;;;;;17.75;54.25;98044.53;1817466;79;20142;-82
2021/09/23 12:34:13;;;;;;;;;;;;;;;17.64;54.03;98046.78;1817255;79;20135;-82
2021/09/23 12:36:41;;;;;;;;;;;;;;;17.52;55.07;98041.17;1817576;79;20462;-82
2021/09/23 12:39:20;;;;;;;;;;;;;;;17.64;55.86;98037.76;1817358;79;21338;-82
2021/09/23 12:41:56;;;;;;;;;;;;;;;17.84;53.81;98040.40;1817738;79;20175;-82
2021/09/23 12:44:23;;;;;;;;;;;;;;;17.84;54.97;98039.83;1817307;79;20185;-82
2021/09/23 12:47:02;;;;;;;;;;;;;;;17.92;54.70;98026.67;1817686;79;20162;-82
2021/09/23 12:49:27;;;;;;;;;;;;;;;18.06;54.89;98031.95;1787094;79;20154;-82
2021/09/23 12:51:53;;;;;;;;;;;;;;;18.14;54.41;98029.75;1817535;79;21123;-82